createdAt,value
2022-08-16T00:01:33.972Z,19.28
2022-08-16T00:04:05.379Z,19.29
2022-08-16T00:06:39.423Z,19.28
2022-08-16T00:09:11.514Z,19.30
2022-08-16T00:11:46.418Z,19.30
2022-08-16T00:14:24.278Z,19.29
2022-08-16T00:17:15.724Z,19.26
2022-08-16T00:19:53.606Z,19.22
2022-08-16T00:22:25.453Z,19.16
2022-08-16T00:24:58.721Z,19.09
2022-08-16T00:27:30.777Z,19.07
2022-08-16T00:30:09.284Z,19.06
2022-08-16T00:32:53.164Z,19.01
2022-08-16T00:35:32.405Z,18.97
2022-08-16T00:38:40.619Z,18.95
2022-08-16T00:40:58.042Z,18.89
2022-08-16T00:43:42.980Z,18.81
2022-08-16T00:46:34.191Z,18.76
2022-08-16T00:49:17.253Z,18.69
2022-08-16T00:51:55.210Z,18.65
2022-08-16T00:54:30.954Z,18.62
2022-08-16T00:57:07.729Z,18.65
2022-08-16T00:59:54.635Z,18.63
2022-08-16T01:05:37.992Z,18.66
2022-08-16T01:08:36.083Z,18.66
2022-08-16T01:11:02.414Z,18.62
2022-08-16T01:13:37.178Z,18.59
2022-08-16T01:16:13.475Z,18.62
2022-08-16T01:18:56.185Z,18.58
2022-08-16T01:21:47.207Z,18.55
2022-08-16T01:24:53.722Z,18.55
2022-08-16T01:27:28.553Z,18.56
2022-08-16T01:30:04.453Z,18.57
2022-08-16T01:33:02.016Z,18.61
2022-08-16T01:35:52.730Z,18.65
2022-08-16T01:38:28.461Z,18.70
2022-08-16T01:41:04.542Z,18.74
2022-08-16T01:43:37.898Z,18.77
2022-08-16T01:46:30.125Z,18.77
2022-08-16T01:49:12.584Z,18.76
2022-08-16T01:51:47.656Z,18.76
2022-08-16T01:54:18.122Z,18.76
2022-08-16T01:57:06.591Z,18.74
2022-08-16T01:59:41.553Z,18.71
2022-08-16T02:02:26.620Z,18.71
2022-08-16T02:04:56.287Z,18.70
2022-08-16T02:07:34.464Z,18.67
2022-08-16T02:10:06.776Z,18.67
2022-08-16T02:12:51.198Z,18.69
2022-08-16T02:15:25.906Z,18.69
2022-08-16T02:17:56.330Z,18.71
2022-08-16T02:20:27.772Z,18.73
2022-08-16T02:22:59.876Z,18.74
2022-08-16T02:25:50.973Z,18.76
2022-08-16T02:28:25.531Z,18.78
2022-08-16T02:30:58.940Z,18.79
2022-08-16T02:33:43.418Z,18.82
2022-08-16T02:36:48.277Z,18.85
2022-08-16T02:39:11.822Z,18.88
2022-08-16T02:41:53.332Z,18.87
2022-08-16T02:44:26.999Z,18.88
2022-08-16T02:46:57.698Z,18.88
2022-08-16T02:50:34.348Z,18.85
2022-08-16T02:52:24.760Z,18.79
2022-08-16T02:54:59.009Z,18.77
2022-08-16T02:57:35.576Z,18.76
2022-08-16T03:00:34.239Z,18.76
2022-08-16T03:05:41.601Z,18.81
2022-08-16T03:08:50.787Z,18.81
2022-08-16T03:11:04.750Z,18.82
2022-08-16T03:13:40.266Z,18.81
2022-08-16T03:16:36.542Z,18.82
2022-08-16T03:18:59.881Z,18.86
2022-08-16T03:21:37.971Z,18.86
2022-08-16T03:24:29.175Z,18.87
2022-08-16T03:27:05.247Z,18.87
2022-08-16T03:29:35.978Z,18.86
2022-08-16T03:32:08.131Z,18.83
2022-08-16T03:34:39.698Z,18.83
2022-08-16T03:37:17.850Z,18.81
2022-08-16T03:39:56.890Z,18.80
2022-08-16T03:42:35.384Z,18.79
2022-08-16T03:45:27.343Z,18.79
2022-08-16T03:48:00.438Z,18.79
2022-08-16T03:50:29.775Z,18.82
2022-08-16T03:53:07.807Z,18.83
2022-08-16T03:55:45.376Z,18.84
2022-08-16T03:58:15.122Z,18.86
2022-08-16T04:00:59.101Z,18.87
2022-08-16T04:03:29.266Z,18.88
2022-08-16T04:06:02.302Z,18.90
2022-08-16T04:08:35.732Z,18.95
2022-08-16T04:11:11.310Z,18.99
2022-08-16T04:13:59.010Z,19.02
2022-08-16T04:16:36.633Z,19.05
2022-08-16T04:19:08.831Z,19.09
2022-08-16T04:21:47.455Z,19.15
2022-08-16T04:24:21.670Z,19.19
2022-08-16T04:26:57.698Z,19.22
2022-08-16T04:29:46.093Z,19.27
2022-08-16T04:32:16.154Z,19.32
2022-08-16T04:34:49.788Z,19.34
2022-08-16T04:37:21.809Z,19.39
2022-08-16T04:40:05.730Z,19.42
2022-08-16T04:42:44.422Z,19.46
2022-08-16T04:45:36.098Z,19.51
2022-08-16T04:48:08.040Z,19.53
2022-08-16T04:50:43.536Z,19.60
2022-08-16T04:53:15.889Z,19.65
2022-08-16T04:55:53.396Z,19.71
2022-08-16T04:58:43.979Z,19.76
2022-08-16T05:01:15.221Z,19.85
2022-08-16T05:05:44.969Z,19.92
2022-08-16T05:08:29.785Z,20.00
2022-08-16T05:11:05.553Z,19.99
2022-08-16T05:13:47.537Z,20.06
2022-08-16T05:16:26.113Z,20.16
2022-08-16T05:19:05.070Z,20.24
2022-08-16T05:21:42.905Z,20.35
2022-08-16T05:24:12.251Z,20.40
2022-08-16T05:26:49.537Z,20.52
2022-08-16T05:29:22.920Z,20.63
2022-08-16T05:31:54.963Z,20.56
2022-08-16T05:34:25.146Z,20.73
2022-08-16T05:36:58.712Z,20.84
2022-08-16T05:39:30.318Z,20.94
2022-08-16T05:42:02.717Z,21.06
2022-08-16T05:44:32.432Z,21.18
2022-08-16T05:47:04.379Z,21.25
2022-08-16T05:49:39.402Z,21.29
2022-08-16T05:52:13.654Z,21.32
2022-08-16T05:54:47.432Z,21.39
2022-08-16T05:57:21.489Z,21.50
2022-08-16T06:00:04.500Z,21.47
2022-08-16T06:02:36.353Z,21.46
2022-08-16T06:05:10.819Z,21.52
2022-08-16T06:07:43.221Z,21.56
2022-08-16T06:10:14.700Z,21.53
2022-08-16T06:13:01.572Z,21.70
2022-08-16T06:15:31.527Z,21.85
2022-08-16T06:18:00.715Z,21.89
2022-08-16T06:20:36.054Z,21.93
2022-08-16T06:23:16.937Z,22.05
2022-08-16T06:25:53.322Z,22.03
2022-08-16T06:28:35.703Z,22.23
2022-08-16T06:31:06.397Z,22.24
2022-08-16T06:33:41.989Z,22.23
2022-08-16T06:36:20.934Z,22.23
2022-08-16T06:39:06.265Z,22.19
2022-08-16T06:41:39.885Z,22.26
2022-08-16T06:44:09.786Z,22.21
2022-08-16T06:46:51.324Z,22.30
2022-08-16T06:49:23.813Z,22.45
2022-08-16T06:51:52.977Z,22.60
2022-08-16T06:54:42.465Z,23.14
2022-08-16T06:57:20.355Z,23.69
2022-08-16T06:59:53.166Z,24.47
2022-08-16T07:05:42.268Z,25.80
2022-08-16T07:08:15.885Z,25.23
2022-08-16T07:10:48.710Z,25.13
2022-08-16T07:13:43.967Z,25.27
2022-08-16T07:16:17.123Z,25.97
2022-08-16T07:18:58.810Z,26.05
2022-08-16T07:21:46.282Z,26.40
2022-08-16T07:24:29.426Z,26.88
2022-08-16T07:27:08.587Z,27.61
2022-08-16T07:29:45.555Z,28.49
2022-08-16T07:32:29.170Z,28.80
2022-08-16T07:34:59.563Z,28.48
2022-08-16T07:37:34.424Z,27.93
2022-08-16T07:40:11.184Z,28.38
2022-08-16T07:42:41.426Z,27.81
2022-08-16T07:45:12.678Z,28.37
2022-08-16T07:47:42.393Z,28.20
2022-08-16T07:50:57.183Z,28.32
2022-08-16T07:53:06.245Z,28.69
2022-08-16T07:55:47.656Z,28.82
2022-08-16T07:58:35.070Z,28.41
2022-08-16T08:01:12.826Z,29.02
2022-08-16T08:03:50.958Z,29.39
2022-08-16T08:06:28.797Z,28.69
2022-08-16T08:09:01.010Z,30.22
2022-08-16T08:11:33.317Z,31.44
2022-08-16T08:14:06.628Z,31.18
2022-08-16T08:16:36.458Z,31.45
2022-08-16T08:19:11.021Z,31.73
2022-08-16T08:21:59.392Z,30.60
2022-08-16T08:24:45.149Z,29.62
2022-08-16T08:27:23.130Z,30.12
2022-08-16T08:30:09.157Z,30.63
2022-08-16T08:32:59.930Z,29.75
2022-08-16T08:35:30.741Z,29.29
2022-08-16T08:38:01.611Z,28.34
2022-08-16T08:40:32.916Z,27.82
2022-08-16T08:43:12.372Z,27.94
2022-08-16T08:45:56.104Z,28.26
2022-08-16T08:48:34.398Z,27.94
2022-08-16T08:51:20.915Z,27.79
2022-08-16T08:53:58.032Z,28.34
2022-08-16T08:56:30.245Z,28.34
2022-08-16T08:59:04.640Z,28.39
2022-08-16T09:01:57.047Z,27.91
2022-08-16T09:05:37.365Z,27.78
2022-08-16T09:08:09.814Z,27.93
2022-08-16T09:10:40.874Z,27.93
2022-08-16T09:13:10.574Z,28.44
2022-08-16T09:15:41.279Z,29.12
2022-08-16T09:18:25.183Z,30.13
2022-08-16T09:21:00.802Z,31.54
2022-08-16T09:23:36.506Z,30.51
2022-08-16T09:26:44.209Z,28.70
2022-08-16T09:29:15.608Z,28.07
2022-08-16T09:31:53.638Z,28.60
2022-08-16T09:34:27.577Z,27.68
2022-08-16T09:36:58.234Z,27.26
2022-08-16T09:39:42.076Z,27.27
2022-08-16T09:42:19.066Z,27.89
2022-08-16T09:45:12.659Z,29.03
2022-08-16T09:48:01.645Z,29.22
2022-08-16T09:50:39.046Z,28.80
2022-08-16T09:53:18.751Z,28.76
2022-08-16T09:55:52.560Z,28.23
2022-08-16T09:58:40.673Z,27.83
2022-08-16T10:01:11.698Z,27.21
2022-08-16T10:04:02.457Z,27.05
2022-08-16T10:06:35.928Z,27.75
2022-08-16T10:09:12.137Z,29.37
2022-08-16T10:12:11.120Z,30.83
2022-08-16T10:14:46.948Z,31.60
2022-08-16T10:17:17.435Z,31.47
2022-08-16T10:19:50.337Z,32.28
2022-08-16T10:22:23.056Z,32.87
2022-08-16T10:25:00.188Z,31.97
2022-08-16T10:27:46.279Z,31.50
2022-08-16T10:30:24.992Z,31.22
2022-08-16T10:32:55.659Z,30.06
2022-08-16T10:35:32.622Z,30.21
2022-08-16T10:38:09.498Z,29.86
2022-08-16T10:40:41.257Z,30.62
2022-08-16T10:43:19.678Z,30.96
2022-08-16T10:46:00.299Z,30.63
2022-08-16T10:48:39.620Z,30.49
2022-08-16T10:52:02.018Z,30.30
2022-08-16T10:54:30.397Z,30.78
2022-08-16T10:57:06.338Z,30.49
2022-08-16T10:59:51.864Z,30.09
2022-08-16T11:08:35.624Z,30.74
2022-08-16T11:11:12.873Z,30.59
2022-08-16T11:13:59.259Z,30.61
2022-08-16T11:19:24.647Z,30.37
2022-08-16T11:22:23.146Z,30.17
2022-08-16T11:24:45.444Z,30.35
2022-08-16T11:27:37.577Z,30.37
2022-08-16T11:30:12.854Z,31.07
2022-08-16T11:32:49.376Z,30.58
2022-08-16T11:35:43.381Z,30.29
2022-08-16T11:38:47.285Z,30.68
2022-08-16T11:41:09.182Z,30.96
2022-08-16T11:43:43.367Z,30.93
2022-08-16T11:46:43.299Z,31.11
2022-08-16T11:49:13.188Z,31.12
2022-08-16T11:51:45.636Z,31.34
2022-08-16T11:54:20.316Z,31.77
2022-08-16T11:56:56.629Z,31.98
2022-08-16T11:59:29.724Z,32.13
2022-08-16T12:02:04.188Z,32.20
2022-08-16T12:04:51.664Z,32.28
2022-08-16T12:07:27.967Z,31.83
2022-08-16T12:10:00.141Z,31.93
2022-08-16T12:12:30.770Z,32.22
2022-08-16T12:15:02.352Z,32.41
2022-08-16T12:17:34.137Z,32.62
2022-08-16T12:20:05.371Z,32.59
2022-08-16T12:22:37.447Z,32.20
2022-08-16T12:25:11.827Z,32.28
2022-08-16T12:27:42.470Z,32.28
2022-08-16T12:30:26.264Z,32.34
2022-08-16T12:33:03.150Z,32.56
2022-08-16T12:35:39.236Z,32.52
2022-08-16T12:38:38.200Z,32.69
2022-08-16T12:40:59.910Z,32.79
2022-08-16T12:43:31.181Z,33.02
2022-08-16T12:46:02.043Z,33.29
2022-08-16T12:48:52.567Z,33.24
2022-08-16T12:51:32.886Z,33.09
2022-08-16T12:54:16.168Z,33.04
2022-08-16T12:56:47.142Z,32.44
2022-08-16T12:59:20.144Z,32.83
2022-08-16T13:01:58.454Z,33.14
2022-08-16T13:05:44.992Z,33.05
2022-08-16T13:08:30.655Z,32.48
2022-08-16T13:11:01.866Z,32.00
2022-08-16T13:13:31.751Z,32.40
2022-08-16T13:16:15.953Z,32.28
2022-08-16T13:18:52.343Z,32.50
2022-08-16T13:21:24.243Z,33.06
2022-08-16T13:23:55.402Z,33.46
2022-08-16T13:26:26.781Z,33.28
2022-08-16T13:28:56.285Z,33.54
2022-08-16T13:31:26.314Z,33.76
2022-08-16T13:33:58.967Z,33.89
2022-08-16T13:36:48.779Z,34.02
2022-08-16T13:39:18.633Z,33.42
2022-08-16T13:41:53.604Z,33.71
2022-08-16T13:44:48.570Z,33.96
2022-08-16T13:47:13.898Z,33.97
2022-08-16T13:49:47.535Z,34.23
2022-08-16T13:52:18.303Z,34.30
2022-08-16T13:54:48.883Z,33.58
2022-08-16T13:57:18.081Z,33.76
2022-08-16T13:59:57.540Z,34.61
2022-08-16T14:02:27.535Z,34.94
2022-08-16T14:05:05.649Z,34.67
2022-08-16T14:07:40.722Z,34.22
2022-08-16T14:10:15.302Z,34.00
2022-08-16T14:12:44.759Z,32.25
2022-08-16T14:15:18.814Z,32.63
2022-08-16T14:18:17.566Z,32.81
2022-08-16T14:20:40.065Z,33.26
2022-08-16T14:23:24.870Z,33.49
2022-08-16T14:25:54.586Z,33.69
2022-08-16T14:28:26.340Z,33.48
2022-08-16T14:30:57.145Z,33.59
2022-08-16T14:33:26.411Z,33.72
2022-08-16T14:36:04.379Z,33.71
2022-08-16T14:38:39.528Z,33.57
2022-08-16T14:41:15.714Z,33.43
2022-08-16T14:43:57.603Z,34.21
2022-08-16T14:46:27.134Z,34.47
2022-08-16T14:48:56.105Z,34.44
2022-08-16T14:51:27.274Z,34.82
2022-08-16T14:54:04.437Z,35.40
2022-08-16T14:56:42.737Z,35.30
2022-08-16T14:59:12.754Z,35.78
2022-08-16T15:01:59.568Z,35.15
2022-08-16T15:05:42.462Z,34.58
2022-08-16T15:08:12.725Z,33.82
2022-08-16T15:10:44.775Z,32.89
2022-08-16T15:13:16.355Z,32.30
2022-08-16T15:15:57.491Z,31.49
2022-08-16T15:18:31.819Z,31.28
2022-08-16T15:21:04.141Z,31.26
2022-08-16T15:23:34.732Z,31.54
2022-08-16T15:26:08.367Z,32.21
2022-08-16T15:28:38.414Z,32.77
2022-08-16T15:31:13.186Z,33.38
2022-08-16T15:33:56.553Z,33.60
2022-08-16T15:36:31.937Z,33.33
2022-08-16T15:39:31.768Z,33.56
2022-08-16T15:42:07.235Z,34.16
2022-08-16T15:44:53.046Z,34.18
2022-08-16T15:47:27.386Z,33.80
2022-08-16T15:49:58.066Z,33.69
2022-08-16T15:52:33.700Z,33.64
2022-08-16T15:55:23.936Z,33.30
2022-08-16T15:57:57.501Z,32.83
2022-08-16T16:00:27.084Z,32.17
2022-08-16T16:03:08.680Z,31.30
2022-08-16T16:05:40.565Z,29.86
2022-08-16T16:08:19.769Z,29.25
2022-08-16T16:10:56.828Z,29.47
2022-08-16T16:13:26.393Z,29.93
2022-08-16T16:16:00.632Z,30.30
2022-08-16T16:18:30.207Z,31.07
2022-08-16T16:21:04.368Z,31.40
2022-08-16T16:23:44.827Z,31.78
2022-08-16T16:26:24.857Z,32.01
2022-08-16T16:29:08.623Z,32.26
2022-08-16T16:31:59.752Z,31.02
2022-08-16T16:34:32.277Z,29.78
2022-08-16T16:37:04.341Z,29.35
2022-08-16T16:39:36.007Z,28.76
2022-08-16T16:42:05.748Z,28.24
2022-08-16T16:44:36.415Z,27.84
2022-08-16T16:47:07.558Z,27.54
2022-08-16T16:49:38.363Z,27.29
2022-08-16T16:52:13.840Z,27.07
2022-08-16T16:55:07.072Z,26.75
2022-08-16T16:58:17.968Z,26.58
2022-08-16T17:00:59.779Z,26.44
2022-08-16T17:05:36.715Z,26.49
2022-08-16T17:08:07.781Z,26.57
2022-08-16T17:10:46.127Z,26.63
2022-08-16T17:13:22.772Z,26.72
2022-08-16T17:15:52.905Z,26.80
2022-08-16T17:19:14.398Z,27.41
2022-08-16T17:21:15.463Z,28.30
2022-08-16T17:23:58.954Z,29.13
2022-08-16T17:26:30.799Z,29.65
2022-08-16T17:29:11.124Z,29.91
2022-08-16T17:31:43.456Z,30.12
2022-08-16T17:34:30.248Z,29.55
2022-08-16T17:37:08.025Z,29.85
2022-08-16T17:39:58.289Z,30.03
2022-08-16T17:42:27.708Z,30.23
2022-08-16T17:44:56.577Z,29.99
2022-08-16T17:47:26.423Z,29.47
2022-08-16T17:49:55.485Z,29.20
2022-08-16T17:52:26.304Z,29.30
2022-08-16T17:54:56.798Z,29.10
2022-08-16T17:57:30.596Z,28.68
2022-08-16T18:00:03.949Z,28.26
2022-08-16T18:02:43.606Z,27.88
2022-08-16T18:05:16.572Z,26.98
2022-08-16T18:07:48.192Z,26.38
2022-08-16T18:10:32.462Z,25.88
2022-08-16T18:13:03.354Z,25.32
2022-08-16T18:15:34.172Z,24.85
2022-08-16T18:18:07.836Z,24.43
2022-08-16T18:20:54.584Z,24.04
2022-08-16T18:23:27.894Z,23.65
2022-08-16T18:26:03.990Z,23.37
2022-08-16T18:28:38.131Z,23.18
2022-08-16T18:31:12.841Z,23.05
2022-08-16T18:33:43.602Z,22.89
2022-08-16T18:36:20.977Z,22.71
2022-08-16T18:38:53.252Z,22.53
2022-08-16T18:41:28.180Z,22.40
2022-08-16T18:44:25.776Z,22.32
2022-08-16T18:46:57.733Z,22.29
2022-08-16T18:49:26.605Z,22.31
2022-08-16T18:52:00.114Z,22.35
2022-08-16T18:55:01.866Z,22.37
2022-08-16T18:57:25.529Z,22.36
2022-08-16T18:59:54.460Z,22.29
2022-08-16T19:05:41.396Z,22.01
2022-08-16T19:08:14.393Z,21.87
2022-08-16T19:10:44.931Z,21.74
2022-08-16T19:13:18.733Z,21.62
2022-08-16T19:15:50.961Z,21.58
2022-08-16T19:18:20.665Z,21.55
2022-08-16T19:20:53.759Z,21.50
2022-08-16T19:23:26.979Z,21.45
2022-08-16T19:26:00.146Z,21.42
2022-08-16T19:28:50.849Z,21.38
2022-08-16T19:31:29.275Z,21.30
2022-08-16T19:33:59.819Z,21.22
2022-08-16T19:36:36.708Z,21.11
2022-08-16T19:39:15.911Z,21.03
2022-08-16T19:41:53.213Z,20.93
2022-08-16T19:44:28.016Z,20.84
2022-08-16T19:46:58.374Z,20.75
2022-08-16T19:49:27.263Z,20.69
2022-08-16T19:52:00.399Z,20.66
2022-08-16T19:54:29.348Z,20.62
2022-08-16T19:57:11.877Z,20.57
2022-08-16T19:59:42.267Z,20.49
2022-08-16T20:02:25.564Z,20.40
2022-08-16T20:05:07.225Z,20.31
2022-08-16T20:07:37.609Z,20.24
2022-08-16T20:10:13.052Z,20.16
2022-08-16T20:12:42.530Z,20.10
2022-08-16T20:15:31.533Z,20.03
2022-08-16T20:18:22.826Z,19.97
2022-08-16T20:20:55.986Z,19.93
2022-08-16T20:23:29.826Z,19.89
2022-08-16T20:25:58.768Z,19.78
2022-08-16T20:28:44.047Z,19.68
2022-08-16T20:31:22.976Z,19.56
2022-08-16T20:33:54.649Z,19.49
2022-08-16T20:36:24.601Z,19.41
2022-08-16T20:38:57.933Z,19.33
2022-08-16T20:41:27.374Z,19.25
2022-08-16T20:43:56.175Z,19.18
2022-08-16T20:46:25.882Z,19.12
2022-08-16T20:48:55.265Z,19.08
2022-08-16T20:51:24.311Z,19.02
2022-08-16T20:53:54.961Z,18.98
2022-08-16T20:56:24.418Z,18.95
2022-08-16T20:58:53.923Z,18.89
2022-08-16T21:01:23.348Z,18.83
2022-08-16T21:05:36.182Z,18.84
2022-08-16T21:08:50.672Z,18.82
2022-08-16T21:10:56.621Z,18.75
2022-08-16T21:13:26.985Z,18.69
2022-08-16T21:15:55.955Z,18.67
2022-08-16T21:18:24.901Z,18.65
2022-08-16T21:20:56.130Z,18.58
2022-08-16T21:23:25.788Z,18.51
2022-08-16T21:25:58.757Z,18.46
2022-08-16T21:28:40.361Z,18.44
2022-08-16T21:31:12.289Z,18.40
2022-08-16T21:33:41.781Z,18.34
2022-08-16T21:36:13.891Z,18.30
2022-08-16T21:38:42.739Z,18.29
2022-08-16T21:41:13.074Z,18.30
2022-08-16T21:43:45.560Z,18.31
2022-08-16T21:46:15.139Z,18.26
2022-08-16T21:48:44.243Z,18.27
2022-08-16T21:51:17.002Z,18.28
2022-08-16T21:53:46.440Z,18.26
2022-08-16T21:56:17.329Z,18.23
2022-08-16T21:58:47.862Z,18.25
2022-08-16T22:01:24.344Z,18.32
2022-08-16T22:04:01.705Z,18.42
2022-08-16T22:06:50.644Z,18.49
2022-08-16T22:09:24.364Z,18.52
2022-08-16T22:11:54.633Z,18.50
2022-08-16T22:14:24.485Z,18.52
2022-08-16T22:16:54.319Z,18.53
2022-08-16T22:19:25.922Z,18.52
2022-08-16T22:21:56.261Z,18.51
2022-08-16T22:24:25.555Z,18.52
2022-08-16T22:26:58.290Z,18.54
2022-08-16T22:29:27.321Z,18.57
2022-08-16T22:31:56.814Z,18.63
2022-08-16T22:34:26.608Z,18.66
2022-08-16T22:36:57.729Z,18.67
2022-08-16T22:39:27.175Z,18.69
2022-08-16T22:41:57.173Z,18.70
2022-08-16T22:44:26.270Z,18.72
2022-08-16T22:46:56.793Z,18.73
2022-08-16T22:49:25.645Z,18.72
2022-08-16T22:51:56.765Z,18.71
2022-08-16T22:54:47.532Z,18.70
2022-08-16T22:57:15.204Z,18.69
2022-08-16T22:59:44.226Z,18.68
2022-08-16T23:05:38.082Z,18.58
2022-08-16T23:08:10.316Z,18.55
2022-08-16T23:10:39.680Z,18.52
2022-08-16T23:13:10.111Z,18.50
2022-08-16T23:15:44.490Z,18.46
2022-08-16T23:18:15.239Z,18.39
2022-08-16T23:20:47.216Z,18.32
2022-08-16T23:23:21.184Z,18.21
2022-08-16T23:25:54.953Z,18.11
2022-08-16T23:28:28.867Z,18.04
2022-08-16T23:31:00.463Z,17.98
2022-08-16T23:33:31.381Z,17.89
2022-08-16T23:36:07.027Z,17.81
2022-08-16T23:38:39.513Z,17.75
2022-08-16T23:41:12.195Z,17.69
2022-08-16T23:43:44.267Z,17.62
2022-08-16T23:46:17.411Z,17.57
2022-08-16T23:50:01.029Z,17.51
2022-08-16T23:51:40.326Z,17.51
2022-08-16T23:54:11.790Z,17.49
2022-08-16T23:56:41.003Z,17.49
2022-08-16T23:59:10.023Z,17.44
